createdAt,value
2019-03-08T00:00:46.319Z,80.06
2019-03-08T00:03:15.395Z,80.24
2019-03-08T00:05:44.479Z,80.21
2019-03-08T00:08:13.582Z,78.02
2019-03-08T00:10:42.604Z,78.40
2019-03-08T00:13:11.655Z,78.08
2019-03-08T00:15:40.755Z,78.50
2019-03-08T00:18:09.812Z,78.16
2019-03-08T00:20:38.855Z,78.52
2019-03-08T00:23:10.107Z,78.53
2019-03-08T00:25:41.140Z,78.59
2019-03-08T00:28:10.482Z,79.19
2019-03-08T00:30:39.559Z,78.87
2019-03-08T00:33:08.644Z,79.35
2019-03-08T00:35:39.814Z,79.91
2019-03-08T00:38:11.686Z,80.27
2019-03-08T00:40:40.714Z,80.24
2019-03-08T00:43:09.811Z,80.69
2019-03-08T00:45:40.302Z,81.08
2019-03-08T00:48:09.337Z,81.34
2019-03-08T00:50:38.454Z,81.28
2019-03-08T00:53:09.037Z,81.36
2019-03-08T00:55:38.275Z,81.58
2019-03-08T00:58:09.328Z,81.69
2019-03-08T01:00:38.389Z,82.42
2019-03-08T01:03:07.445Z,82.22
2019-03-08T01:05:36.527Z,82.70
2019-03-08T01:08:05.525Z,83.24
2019-03-08T01:10:34.599Z,83.17
2019-03-08T01:13:03.636Z,84.20
2019-03-08T01:15:32.729Z,84.62
2019-03-08T01:18:01.739Z,85.21
2019-03-08T01:20:30.848Z,84.82
2019-03-08T01:22:59.921Z,85.14
2019-03-08T01:25:28.954Z,85.54
2019-03-08T01:28:02.921Z,85.99
2019-03-08T01:30:32.171Z,85.45
2019-03-08T01:33:01.165Z,85.92
2019-03-08T01:35:31.858Z,85.84
2019-03-08T01:38:00.879Z,84.50
2019-03-08T01:40:29.961Z,85.74
2019-03-08T01:42:59.040Z,85.72
2019-03-08T01:45:28.095Z,85.64
2019-03-08T01:47:57.134Z,84.75
2019-03-08T01:50:26.446Z,85.04
2019-03-08T01:52:55.482Z,85.02
2019-03-08T01:55:24.524Z,85.01
2019-03-08T01:57:53.558Z,84.16
2019-03-08T02:00:22.640Z,84.46
2019-03-08T02:02:51.704Z,84.46
2019-03-08T02:05:20.965Z,83.04
2019-03-08T02:07:50.084Z,82.97
2019-03-08T02:10:19.138Z,82.79
2019-03-08T02:12:48.150Z,83.29
2019-03-08T02:15:17.201Z,82.96
2019-03-08T02:17:46.226Z,83.47
2019-03-08T02:20:19.484Z,82.61
2019-03-08T02:22:48.564Z,82.35
2019-03-08T02:25:18.575Z,82.18
2019-03-08T02:27:47.689Z,82.44
2019-03-08T02:30:17.064Z,82.75
2019-03-08T02:32:46.323Z,82.79
2019-03-08T02:35:16.466Z,83.05
2019-03-08T02:37:45.531Z,82.82
2019-03-08T02:40:31.381Z,82.93
2019-03-08T02:43:00.694Z,82.93
2019-03-08T02:45:30.789Z,82.48
2019-03-08T02:47:59.824Z,82.51
2019-03-08T02:50:28.893Z,82.68
2019-03-08T02:52:57.991Z,82.80
2019-03-08T02:55:27.011Z,81.81
2019-03-08T02:57:56.062Z,82.30
2019-03-08T03:00:26.649Z,82.19
2019-03-08T03:02:55.714Z,81.85
2019-03-08T03:05:24.729Z,81.25
2019-03-08T03:07:53.767Z,80.77
2019-03-08T03:10:22.990Z,80.52
2019-03-08T03:12:52.142Z,81.34
2019-03-08T03:15:21.212Z,81.48
2019-03-08T03:17:50.306Z,81.56
2019-03-08T03:20:19.371Z,81.50
2019-03-08T03:22:48.430Z,81.89
2019-03-08T03:25:17.447Z,81.28
2019-03-08T03:27:46.495Z,80.90
2019-03-08T03:30:15.615Z,80.90
2019-03-08T03:32:44.698Z,81.39
2019-03-08T03:35:13.754Z,81.38
2019-03-08T03:37:42.771Z,81.82
2019-03-08T03:40:12.425Z,81.13
2019-03-08T03:42:41.438Z,81.40
2019-03-08T03:45:10.930Z,81.85
2019-03-08T03:47:40.008Z,82.04
2019-03-08T03:50:10.255Z,81.74
2019-03-08T03:52:39.566Z,81.37
2019-03-08T03:55:09.112Z,81.15
2019-03-08T03:57:38.143Z,81.49
2019-03-08T04:00:08.478Z,81.10
2019-03-08T04:02:37.548Z,81.44
2019-03-08T04:05:07.258Z,81.27
2019-03-08T04:07:36.265Z,81.02
2019-03-08T04:10:05.866Z,80.75
2019-03-08T04:12:35.073Z,80.74
2019-03-08T04:15:04.397Z,80.92
2019-03-08T04:17:33.400Z,80.62
2019-03-08T04:20:02.745Z,80.70
2019-03-08T04:22:31.787Z,80.23
2019-03-08T04:25:00.845Z,80.75
2019-03-08T04:27:29.980Z,80.81
2019-03-08T04:29:59.032Z,81.07
2019-03-08T04:32:28.078Z,81.07
2019-03-08T04:34:57.350Z,81.44
2019-03-08T04:37:26.388Z,80.38
2019-03-08T04:39:55.474Z,80.55
2019-03-08T04:42:24.514Z,80.58
2019-03-08T04:44:53.609Z,81.35
2019-03-08T04:47:22.707Z,80.80
2019-03-08T04:49:51.827Z,81.09
2019-03-08T04:52:20.854Z,80.47
2019-03-08T04:54:50.880Z,81.05
2019-03-08T04:57:19.928Z,80.25
2019-03-08T04:59:49.148Z,80.23
2019-03-08T05:02:18.248Z,80.60
2019-03-08T05:04:47.342Z,80.05
2019-03-08T05:07:16.392Z,80.21
2019-03-08T05:09:45.450Z,80.17
2019-03-08T05:12:17.247Z,80.53
2019-03-08T05:14:46.282Z,80.54
2019-03-08T05:17:15.557Z,80.63
2019-03-08T05:19:44.622Z,80.05
2019-03-08T05:22:13.714Z,80.30
2019-03-08T05:24:42.726Z,80.52
2019-03-08T05:27:13.631Z,80.14
2019-03-08T05:29:42.694Z,79.73
2019-03-08T05:32:11.777Z,80.60
2019-03-08T05:34:40.818Z,80.97
2019-03-08T05:37:09.871Z,81.14
2019-03-08T05:39:38.870Z,80.60
2019-03-08T05:42:07.910Z,80.72
2019-03-08T05:44:36.965Z,81.17
2019-03-08T05:47:06.057Z,80.72
2019-03-08T05:49:35.161Z,81.28
2019-03-08T05:52:04.196Z,81.70
2019-03-08T05:54:33.209Z,81.63
2019-03-08T05:57:02.258Z,81.28
2019-03-08T05:59:31.275Z,81.75
2019-03-08T06:02:00.334Z,81.53
2019-03-08T06:04:29.422Z,81.58
2019-03-08T06:06:58.554Z,80.99
2019-03-08T06:09:27.577Z,80.95
2019-03-08T06:11:56.684Z,81.18
2019-03-08T06:14:25.774Z,80.37
2019-03-08T06:16:54.806Z,80.27
2019-03-08T06:19:23.839Z,80.32
2019-03-08T06:21:52.969Z,80.34
2019-03-08T06:24:21.966Z,79.93
2019-03-08T06:26:51.095Z,80.63
2019-03-08T06:29:20.207Z,80.40
2019-03-08T06:31:49.303Z,80.69
2019-03-08T06:34:18.353Z,80.40
2019-03-08T06:36:48.963Z,80.50
2019-03-08T06:39:19.074Z,79.73
2019-03-08T06:41:48.126Z,79.77
2019-03-08T06:44:19.237Z,79.74
2019-03-08T06:46:48.328Z,79.69
2019-03-08T06:49:17.405Z,79.80
2019-03-08T06:51:46.431Z,78.99
2019-03-08T06:54:15.494Z,78.73
2019-03-08T06:56:44.572Z,79.01
2019-03-08T06:59:36.554Z,78.62
2019-03-08T07:02:05.647Z,79.76
2019-03-08T07:04:36.667Z,79.04
2019-03-08T07:07:05.727Z,79.43
2019-03-08T07:09:35.174Z,78.78
2019-03-08T07:12:06.113Z,79.60
2019-03-08T07:14:35.185Z,79.39
2019-03-08T07:17:04.275Z,80.06
2019-03-08T07:19:40.756Z,80.12
2019-03-08T07:22:10.744Z,80.24
2019-03-08T07:25:06.148Z,80.58
2019-03-08T07:28:00.267Z,80.98
2019-03-08T07:30:45.226Z,80.81
2019-03-08T07:33:32.180Z,80.67
2019-03-08T07:36:35.535Z,80.90
2019-03-08T07:39:22.371Z,81.00
2019-03-08T07:42:04.756Z,80.21
2019-03-08T07:44:43.382Z,79.83
2019-03-08T07:47:34.289Z,80.42
2019-03-08T07:50:34.677Z,80.50
2019-03-08T07:53:10.745Z,80.41
2019-03-08T07:55:52.493Z,80.41
2019-03-08T07:58:55.779Z,80.64
2019-03-08T08:01:30.302Z,81.09
2019-03-08T08:04:18.335Z,81.13
2019-03-08T08:06:53.752Z,81.66
2019-03-08T08:09:38.639Z,82.37
2019-03-08T08:12:29.492Z,81.64
2019-03-08T08:15:04.639Z,83.17
2019-03-08T08:17:56.474Z,83.25
2019-03-08T08:20:50.882Z,82.88
2019-03-08T08:23:34.072Z,83.92
2019-03-08T08:26:03.003Z,83.90
2019-03-08T08:28:55.912Z,84.81
2019-03-08T08:31:59.399Z,85.60
2019-03-08T08:34:56.542Z,85.08
2019-03-08T08:37:41.775Z,85.27
2019-03-08T08:40:18.364Z,85.52
2019-03-08T08:43:12.624Z,85.82
2019-03-08T08:46:05.091Z,85.95
2019-03-08T08:48:53.092Z,85.90
2019-03-08T08:51:39.847Z,89.07
2019-03-08T08:54:18.836Z,89.24
2019-03-08T08:57:09.897Z,88.98
2019-03-08T08:59:47.163Z,87.65
2019-03-08T09:02:37.890Z,87.94
2019-03-08T09:05:25.639Z,88.26
2019-03-08T09:08:20.125Z,88.55
2019-03-08T09:10:55.646Z,87.92
2019-03-08T09:13:49.766Z,87.60
2019-03-08T09:16:36.631Z,87.57
2019-03-08T09:19:15.660Z,88.90
2019-03-08T09:22:00.758Z,87.95
2019-03-08T09:24:35.842Z,86.63
2019-03-08T09:27:30.170Z,87.74
2019-03-08T09:30:30.328Z,88.30
2019-03-08T09:33:07.429Z,88.54
2019-03-08T09:35:57.049Z,86.87
2019-03-08T09:38:43.635Z,88.14
2019-03-08T09:41:29.827Z,88.84
2019-03-08T09:44:17.796Z,90.81
2019-03-08T09:46:54.747Z,90.79
2019-03-08T09:49:45.720Z,89.09
2019-03-08T09:52:19.460Z,90.54
2019-03-08T09:54:54.254Z,91.96
2019-03-08T09:57:57.290Z,91.04
2019-03-08T10:00:57.014Z,91.38
2019-03-08T10:03:47.067Z,91.35
2019-03-08T10:06:35.126Z,91.00
2019-03-08T10:09:09.719Z,91.36
2019-03-08T10:11:52.386Z,90.94
2019-03-08T10:14:36.668Z,91.18
2019-03-08T10:17:43.050Z,90.13
2019-03-08T10:20:32.675Z,90.55
2019-03-08T10:23:19.615Z,90.89
2019-03-08T10:26:00.575Z,90.37
2019-03-08T10:28:39.572Z,90.17
2019-03-08T10:31:30.806Z,89.66
2019-03-08T10:34:25.157Z,88.76
2019-03-08T10:37:18.029Z,89.44
2019-03-08T10:40:10.045Z,89.46
2019-03-08T10:43:00.787Z,89.18
2019-03-08T10:45:47.993Z,89.94
2019-03-08T10:48:29.603Z,90.44
2019-03-08T10:51:07.604Z,89.65
2019-03-08T10:53:41.613Z,88.56
2019-03-08T10:56:25.791Z,87.57
2019-03-08T10:59:11.763Z,88.34
2019-03-08T11:02:02.796Z,87.81
2019-03-08T11:04:40.065Z,86.86
2019-03-08T11:07:27.269Z,85.47
2019-03-08T11:10:21.875Z,84.86
2019-03-08T11:13:05.190Z,84.14
2019-03-08T11:15:51.852Z,83.83
2019-03-08T11:18:45.701Z,84.17
2019-03-08T11:21:49.281Z,81.71
2019-03-08T11:24:30.841Z,82.96
2019-03-08T11:27:25.779Z,81.20
2019-03-08T11:30:13.763Z,79.31
2019-03-08T11:33:13.900Z,79.78
2019-03-08T11:36:07.219Z,79.94
2019-03-08T11:38:57.682Z,79.20
2019-03-08T11:41:48.828Z,81.25
2019-03-08T11:44:27.154Z,81.69
2019-03-08T11:47:14.025Z,81.79
2019-03-08T11:50:08.075Z,82.29
2019-03-08T11:52:46.799Z,82.59
2019-03-08T11:55:29.919Z,82.21
2019-03-08T11:58:20.698Z,82.17
2019-03-08T12:01:02.956Z,81.54
2019-03-08T12:03:57.316Z,81.06
2019-03-08T12:06:34.829Z,80.08
2019-03-08T12:09:23.019Z,79.97
2019-03-08T12:12:29.065Z,78.65
2019-03-08T12:15:15.964Z,77.76
2019-03-08T12:17:58.354Z,77.50
2019-03-08T12:20:43.146Z,76.43
2019-03-08T12:23:31.004Z,75.82
2019-03-08T12:26:29.562Z,73.81
2019-03-08T12:29:20.367Z,74.04
2019-03-08T12:32:14.442Z,73.50
2019-03-08T12:35:08.582Z,75.40
2019-03-08T12:38:05.875Z,74.71
2019-03-08T12:40:52.641Z,76.00
2019-03-08T12:43:38.475Z,79.23
2019-03-08T12:46:14.649Z,81.36
2019-03-08T12:48:52.676Z,83.01
2019-03-08T12:51:32.370Z,82.52
2019-03-08T12:54:26.570Z,82.82
2019-03-08T12:57:13.483Z,82.16
2019-03-08T12:59:50.227Z,82.61
2019-03-08T13:02:41.213Z,82.89
2019-03-08T13:05:29.250Z,83.26
2019-03-08T13:08:35.391Z,82.58
2019-03-08T13:11:04.508Z,80.94
2019-03-08T13:13:33.542Z,80.13
2019-03-08T13:16:02.619Z,77.74
2019-03-08T13:18:31.649Z,78.36
2019-03-08T13:21:00.736Z,76.89
2019-03-08T13:23:29.776Z,76.68
2019-03-08T13:25:58.821Z,76.82
2019-03-08T13:28:27.831Z,76.45
2019-03-08T13:30:56.920Z,77.26
2019-03-08T13:33:25.980Z,77.09
2019-03-08T13:35:55.041Z,78.40
2019-03-08T13:38:24.120Z,76.57
2019-03-08T13:40:53.149Z,78.16
2019-03-08T13:43:22.232Z,78.52
2019-03-08T13:45:51.353Z,76.87
2019-03-08T13:48:20.384Z,76.73
2019-03-08T13:50:49.450Z,76.58
2019-03-08T13:53:18.539Z,76.82
2019-03-08T13:55:47.591Z,77.07
2019-03-08T13:58:16.622Z,76.96
2019-03-08T14:00:47.628Z,76.72
2019-03-08T14:03:18.750Z,78.56
2019-03-08T14:05:47.935Z,77.74
2019-03-08T14:08:17.065Z,78.54
2019-03-08T14:10:46.184Z,79.21
2019-03-08T14:13:15.201Z,81.31
2019-03-08T14:15:44.272Z,82.27
2019-03-08T14:18:14.947Z,84.88
2019-03-08T14:20:44.007Z,83.79
2019-03-08T14:23:13.114Z,83.88
2019-03-08T14:25:42.177Z,84.47
2019-03-08T14:28:11.543Z,82.71
2019-03-08T14:30:47.271Z,79.83
2019-03-08T14:33:16.361Z,81.16
2019-03-08T14:35:45.434Z,79.76
2019-03-08T14:38:15.776Z,78.38
2019-03-08T14:40:59.719Z,78.50
2019-03-08T14:43:35.336Z,76.75
2019-03-08T14:46:21.020Z,77.07
2019-03-08T14:48:49.852Z,76.42
2019-03-08T14:51:18.923Z,76.47
2019-03-08T14:53:47.952Z,75.18
2019-03-08T14:56:18.531Z,74.78
2019-03-08T14:58:47.621Z,72.62
2019-03-08T15:01:16.755Z,71.99
2019-03-08T15:03:45.862Z,71.41
2019-03-08T15:06:14.965Z,72.73
2019-03-08T15:08:44.005Z,71.95
2019-03-08T15:11:13.098Z,70.96
2019-03-08T15:13:42.449Z,71.15
2019-03-08T15:16:12.542Z,71.47
2019-03-08T15:18:41.624Z,70.10
2019-03-08T15:21:10.682Z,68.09
2019-03-08T15:23:39.788Z,67.14
2019-03-08T15:26:08.882Z,67.64
2019-03-08T15:28:38.034Z,67.01
2019-03-08T15:31:07.024Z,65.62
2019-03-08T15:33:37.425Z,65.68
2019-03-08T15:36:06.490Z,63.81
2019-03-08T15:38:35.945Z,61.96
2019-03-08T15:41:05.006Z,61.66
2019-03-08T15:43:36.191Z,59.89
2019-03-08T15:46:05.318Z,58.47
2019-03-08T15:48:34.497Z,55.88
2019-03-08T15:51:04.492Z,56.70
2019-03-08T15:53:44.896Z,55.77
2019-03-08T15:56:12.921Z,54.61
2019-03-08T15:58:46.307Z,54.56
2019-03-08T16:01:19.640Z,54.06
2019-03-08T16:04:45.938Z,53.75
2019-03-08T16:07:27.077Z,51.26
2019-03-08T16:10:02.059Z,49.16
2019-03-08T16:12:33.438Z,51.14
2019-03-08T16:15:04.858Z,50.18
2019-03-08T16:17:33.966Z,51.57
2019-03-08T16:20:03.946Z,50.68
2019-03-08T16:22:35.451Z,50.94
2019-03-08T16:25:06.566Z,51.30
2019-03-08T16:27:35.346Z,51.60
2019-03-08T16:30:09.713Z,51.93
2019-03-08T16:32:56.494Z,52.16
2019-03-08T16:35:29.695Z,51.91
2019-03-08T16:38:32.873Z,51.49
2019-03-08T16:41:21.062Z,52.66
2019-03-08T16:44:12.720Z,53.56
2019-03-08T16:47:12.069Z,52.59
2019-03-08T16:50:01.385Z,53.06
2019-03-08T16:52:47.787Z,54.16
2019-03-08T16:55:32.696Z,54.28
2019-03-08T16:58:14.594Z,55.05
2019-03-08T17:00:53.809Z,54.60
2019-03-08T17:03:45.310Z,54.77
2019-03-08T17:06:44.921Z,56.14
2019-03-08T17:09:28.117Z,56.60
2019-03-08T17:12:22.187Z,56.77
2019-03-08T17:15:03.364Z,56.92
2019-03-08T17:17:41.941Z,58.32
2019-03-08T17:20:16.030Z,57.55
2019-03-08T17:22:53.878Z,57.79
2019-03-08T17:25:35.399Z,59.57
2019-03-08T17:28:24.108Z,58.88
2019-03-08T17:31:00.527Z,59.04
2019-03-08T17:33:35.307Z,59.69
2019-03-08T17:36:12.019Z,59.57
2019-03-08T17:38:50.084Z,60.26
2019-03-08T17:41:36.992Z,61.36
2019-03-08T17:44:22.929Z,61.30
2019-03-08T17:47:09.794Z,61.75
2019-03-08T17:50:08.124Z,62.50
2019-03-08T17:53:06.181Z,62.75
2019-03-08T17:55:54.317Z,63.04
2019-03-08T17:58:47.969Z,63.57
2019-03-08T18:01:51.483Z,62.23
2019-03-08T18:04:33.356Z,65.43
2019-03-08T18:07:25.594Z,64.89
2019-03-08T18:10:13.670Z,66.87
2019-03-08T18:12:59.308Z,67.43
2019-03-08T18:15:46.314Z,67.48
2019-03-08T18:18:49.745Z,68.75
2019-03-08T18:21:29.131Z,69.42
2019-03-08T18:24:23.785Z,71.08
2019-03-08T18:27:21.481Z,70.71
2019-03-08T18:30:03.109Z,70.88
2019-03-08T18:32:52.626Z,70.40
2019-03-08T18:35:53.023Z,71.57
2019-03-08T18:38:41.178Z,72.25
2019-03-08T18:41:24.147Z,72.38
2019-03-08T18:44:03.857Z,73.05
2019-03-08T18:46:47.134Z,72.34
2019-03-08T18:49:38.406Z,74.78
2019-03-08T18:52:21.698Z,75.09
2019-03-08T18:55:18.856Z,74.96
2019-03-08T18:57:57.444Z,75.96
2019-03-08T19:00:44.280Z,74.77
2019-03-08T19:03:38.061Z,73.51
2019-03-08T19:06:19.251Z,72.84
2019-03-08T19:09:07.296Z,71.88
2019-03-08T19:12:01.831Z,72.46
2019-03-08T19:14:49.886Z,72.26
2019-03-08T19:17:46.190Z,71.39
2019-03-08T19:20:44.020Z,71.09
2019-03-08T19:23:21.298Z,70.74
2019-03-08T19:26:14.414Z,70.46
2019-03-08T19:28:54.576Z,71.19
2019-03-08T19:31:47.444Z,70.84
2019-03-08T19:34:53.539Z,69.87
2019-03-08T19:37:41.131Z,70.44
2019-03-08T19:40:31.935Z,70.07
2019-03-08T19:43:24.198Z,68.88
2019-03-08T19:46:13.311Z,67.96
2019-03-08T19:49:09.012Z,66.91
2019-03-08T19:51:57.350Z,67.38
2019-03-08T19:54:45.326Z,67.01
2019-03-08T19:57:24.571Z,66.89
2019-03-08T20:00:12.644Z,66.27
2019-03-08T20:02:49.875Z,66.47
2019-03-08T20:05:31.348Z,66.89
2019-03-08T20:08:09.426Z,66.28
2019-03-08T20:10:56.186Z,66.83
2019-03-08T20:13:53.325Z,66.71
2019-03-08T20:16:44.480Z,66.32
2019-03-08T20:19:21.091Z,67.06
2019-03-08T20:22:03.018Z,67.34
2019-03-08T20:25:06.355Z,67.52
2019-03-08T20:28:00.551Z,67.70
2019-03-08T20:31:07.635Z,67.41
2019-03-08T20:34:01.430Z,68.13
2019-03-08T20:36:49.534Z,68.54
2019-03-08T20:39:32.939Z,68.67
2019-03-08T20:42:10.262Z,68.56
2019-03-08T20:44:52.994Z,68.38
2019-03-08T20:47:25.488Z,69.07
2019-03-08T20:49:56.738Z,69.86
2019-03-08T20:52:25.785Z,70.52
2019-03-08T20:54:56.003Z,70.07
2019-03-08T20:57:25.326Z,70.55
2019-03-08T20:59:54.440Z,70.96
2019-03-08T21:02:25.676Z,70.80
2019-03-08T21:04:54.830Z,71.39
2019-03-08T21:07:23.979Z,70.68
2019-03-08T21:09:53.044Z,71.70
2019-03-08T21:12:22.158Z,69.77
2019-03-08T21:14:51.244Z,70.20
2019-03-08T21:17:20.484Z,71.62
2019-03-08T21:19:49.532Z,70.61
2019-03-08T21:22:18.652Z,71.51
2019-03-08T21:24:47.684Z,72.41
2019-03-08T21:27:20.375Z,71.64
2019-03-08T21:29:49.820Z,71.63
2019-03-08T21:32:18.950Z,72.26
2019-03-08T21:34:49.258Z,72.30
2019-03-08T21:37:18.310Z,72.45
2019-03-08T21:39:47.436Z,72.56
2019-03-08T21:42:16.767Z,72.47
2019-03-08T21:44:45.932Z,70.97
2019-03-08T21:47:16.769Z,71.39
2019-03-08T21:49:45.879Z,70.52
2019-03-08T21:52:14.952Z,70.78
2019-03-08T21:54:44.312Z,71.10
2019-03-08T21:57:13.352Z,71.28
2019-03-08T21:59:42.430Z,70.89
2019-03-08T22:02:11.473Z,71.46
2019-03-08T22:04:44.018Z,71.26
2019-03-08T22:07:13.488Z,70.03
2019-03-08T22:09:56.701Z,70.54
2019-03-08T22:12:25.763Z,69.82
2019-03-08T22:14:56.000Z,69.68
2019-03-08T22:17:25.183Z,69.31
2019-03-08T22:19:54.320Z,69.36
2019-03-08T22:22:23.343Z,70.25
2019-03-08T22:24:52.435Z,69.75
2019-03-08T22:27:22.591Z,69.81
2019-03-08T22:29:51.634Z,70.18
2019-03-08T22:32:20.709Z,69.76
2019-03-08T22:34:49.836Z,71.05
2019-03-08T22:37:18.891Z,69.53
2019-03-08T22:39:47.927Z,69.22
2019-03-08T22:42:19.243Z,68.95
2019-03-08T22:44:48.394Z,68.88
2019-03-08T22:47:17.469Z,69.59
2019-03-08T22:49:46.495Z,69.85
2019-03-08T22:52:15.558Z,69.94
2019-03-08T22:54:44.572Z,69.92
2019-03-08T22:57:13.841Z,69.65
2019-03-08T22:59:42.919Z,69.80
2019-03-08T23:02:13.125Z,69.91
2019-03-08T23:04:42.961Z,68.82
2019-03-08T23:07:12.107Z,69.50
2019-03-08T23:09:41.217Z,69.28
2019-03-08T23:12:10.739Z,69.38
2019-03-08T23:14:39.864Z,69.19
2019-03-08T23:17:08.973Z,68.92
2019-03-08T23:19:37.963Z,69.02
2019-03-08T23:22:07.266Z,69.02
2019-03-08T23:24:36.280Z,70.21
2019-03-08T23:27:12.458Z,69.98
2019-03-08T23:30:04.861Z,69.67
2019-03-08T23:32:39.112Z,69.68
2019-03-08T23:35:08.270Z,69.24
2019-03-08T23:37:37.316Z,69.63
2019-03-08T23:40:07.701Z,70.10
2019-03-08T23:42:36.824Z,70.33
2019-03-08T23:45:06.193Z,70.51
2019-03-08T23:47:38.340Z,69.87
2019-03-08T23:50:08.779Z,69.89
2019-03-08T23:52:37.856Z,69.42
2019-03-08T23:55:07.443Z,69.22
2019-03-08T23:57:36.589Z,69.71
